Time;durP1;ratioP1;P1;durP2;ratioP2;P2;SDS_P1;SDS_P2;PMS_P1;PMS_P2;Temp;Humidity;BMP_temperature;BMP_pressure;BME280_temperature;BME280_humidity;BME280_pressure;Samples;Min_cycle;Max_cycle;Signal;HPM_P1;HPM_P2
2022/09/11 00:00:22;;;;;;;3.43;0.80;;;11.40;99.90;12.90;96782.00;;;;5087851;28;20202;-71
2022/09/11 00:03:12;;;;;;;0.63;0.60;;;11.50;99.90;12.90;96778.00;;;;5071106;28;20197;-71
2022/09/11 00:06:02;;;;;;;3.30;0.50;;;11.50;99.90;12.80;96767.00;;;;5080193;28;20199;-72
2022/09/11 00:08:55;;;;;;;3.40;0.50;;;11.50;99.90;13.00;96759.00;;;;5089366;28;20238;-71
2022/09/11 00:11:44;;;;;;;1.40;0.63;;;11.50;99.90;12.60;96766.00;;;;5075536;28;20200;-71
2022/09/11 00:14:32;;;;;;;2.30;0.73;;;11.50;99.90;12.50;96763.00;;;;5072902;28;20192;-71
2022/09/11 00:17:21;;;;;;;0.50;0.50;;;11.50;99.90;12.30;96757.00;;;;5079377;28;20232;-71
2022/09/11 00:20:11;;;;;;;2.37;1.30;;;11.30;99.90;12.10;96767.00;;;;5085034;28;20199;-71
2022/09/11 00:23:03;;;;;;;0.90;0.60;;;11.30;99.90;12.30;96753.00;;;;5070100;28;20199;-71
2022/09/11 00:25:52;;;;;;;0.70;0.63;;;11.20;99.90;12.50;96757.00;;;;5070659;28;20227;-71
2022/09/11 00:28:41;;;;;;;0.60;0.60;;;11.20;99.90;12.60;96763.00;;;;5079374;28;20702;-71
2022/09/11 00:31:31;;;;;;;2.17;0.40;;;11.20;99.90;12.40;96763.00;;;;5070580;28;20218;-71
2022/09/11 00:34:20;;;;;;;1.93;0.40;;;11.20;99.90;11.90;96769.00;;;;5087299;28;20285;-71
2022/09/11 00:37:10;;;;;;;2.93;0.73;;;11.10;99.90;11.80;96768.00;;;;5079367;28;20568;-71
2022/09/11 00:39:58;;;;;;;0.40;0.40;;;11.00;99.90;11.80;96765.00;;;;5071876;28;20196;-71
2022/09/11 00:42:54;;;;;;;0.88;0.70;;;10.90;99.90;11.90;96770.00;;;;5073681;28;20405;-71
2022/09/11 00:45:45;;;;;;;0.50;0.50;;;10.90;99.90;11.70;96765.00;;;;5072807;28;20264;-71
2022/09/11 00:48:36;;;;;;;0.63;0.53;;;10.80;99.90;11.80;96757.00;;;;5086621;28;20690;-71
2022/09/11 00:51:30;;;;;;;5.17;0.60;;;10.70;99.90;11.50;96767.00;;;;5071803;28;20982;-72
2022/09/11 00:54:26;;;;;;;0.40;0.40;;;10.70;99.90;11.20;96760.00;;;;5071183;28;20205;-72
2022/09/11 00:57:15;;;;;;;0.90;0.60;;;10.50;99.90;11.20;96765.00;;;;5072316;28;20391;-71
2022/09/11 01:00:07;;;;;;;0.60;0.60;;;10.50;99.90;11.10;96750.00;;;;5078945;28;20192;-73
2022/09/11 01:02:57;;;;;;;4.60;1.10;;;10.70;99.90;10.80;96752.00;;;;5084129;28;20397;-70
2022/09/11 01:05:47;;;;;;;0.60;0.55;;;10.30;99.90;10.60;96759.00;;;;5085941;28;20386;-73
2022/09/11 01:08:35;;;;;;;2.22;0.85;;;10.20;99.90;10.70;96753.00;;;;5071059;28;20432;-70
2022/09/11 01:11:45;;;;;;;3.95;0.60;;;10.10;99.90;11.20;96754.00;;;;5068274;28;20890;-71
2022/09/11 01:14:46;;;;;;;3.20;1.03;;;10.20;99.90;11.30;96755.00;;;;5079083;28;20198;-71
2022/09/11 01:17:46;;;;;;;2.60;0.67;;;10.10;99.90;11.60;96739.00;;;;5080177;28;20219;-71
2022/09/11 01:20:52;;;;;;;4.20;0.60;;;10.20;99.90;11.60;96743.00;;;;5079453;28;20264;-71
2022/09/11 01:24:00;;;;;;;4.90;0.97;;;10.30;99.90;11.40;96747.00;;;;5084595;28;20191;-71
2022/09/11 01:27:41;;;;;;;0.77;0.40;;;10.30;99.90;11.10;96736.00;;;;5082104;28;20748;-73
2022/09/11 01:30:36;;;;;;;0.50;0.40;;;10.30;99.90;11.20;96743.00;;;;5081698;28;20630;-71
2022/09/11 01:33:30;;;;;;;0.50;0.47;;;8.70;99.90;10.80;96745.00;;;;5082392;28;20203;-70
2022/09/11 01:36:22;;;;;;;1.20;0.73;;;10.10;99.90;10.80;96742.00;;;;5070027;28;20191;-74
2022/09/11 01:39:11;;;;;;;0.73;0.73;;;10.10;99.90;11.10;96748.00;;;;5080541;28;20219;-71
2022/09/11 01:42:04;;;;;;;3.13;0.60;;;10.10;99.90;11.30;96745.00;;;;5084134;22;20310;-85
2022/09/11 01:44:57;;;;;;;3.33;0.47;;;10.10;99.90;11.00;96735.00;;;;5061078;28;20200;-86
2022/09/11 01:47:49;;;;;;;0.40;0.40;;;11.90;99.90;10.50;96730.00;;;;5052657;28;20400;-85
2022/09/11 01:50:41;;;;;;;1.13;0.40;;;10.00;99.90;10.80;96727.00;;;;5052270;28;20420;-86
2022/09/11 01:56:32;;;;;;;0.50;0.50;;;10.00;99.90;10.80;96722.00;;;;4970368;28;20237;-69
2022/09/11 01:59:29;;;;;;;1.20;0.67;;;10.00;99.90;10.80;96720.00;;;;4968079;28;20242;-71
2022/09/11 02:02:26;;;;;;;1.73;0.50;;;10.00;99.90;10.70;96722.00;;;;5002897;28;20319;-69
2022/09/11 02:05:20;;;;;;;0.60;0.50;;;10.00;99.90;11.00;96718.00;;;;5005827;28;20201;-70
2022/09/11 02:08:15;;;;;;;0.50;0.50;;;10.00;99.90;11.30;96719.00;;;;4991848;28;20606;-70
2022/09/11 02:11:09;;;;;;;0.57;0.57;;;10.10;99.90;11.40;96715.00;;;;4988490;28;20219;-69
2022/09/11 02:14:05;;;;;;;0.50;0.50;;;10.20;99.90;11.20;96722.00;;;;4982215;28;20705;-70
2022/09/11 02:17:03;;;;;;;0.30;0.30;;;10.20;99.90;10.70;96709.00;;;;4997362;28;20226;-69
2022/09/11 02:19:55;;;;;;;5.30;0.70;;;10.10;99.90;10.70;96708.00;;;;4990399;28;20209;-71
2022/09/11 02:22:44;;;;;;;0.73;0.60;;;10.00;99.90;10.80;96716.00;;;;4989467;28;20202;-70
2022/09/11 02:25:32;;;;;;;0.70;0.67;;;10.00;99.90;10.80;96717.00;;;;4996418;28;20213;-69
2022/09/11 02:28:21;;;;;;;5.20;0.70;;;9.90;99.90;10.90;96719.00;;;;5002505;28;20225;-69
2022/09/11 02:31:10;;;;;;;2.70;0.77;;;9.90;99.90;11.20;96715.00;;;;4991160;28;20237;-70
2022/09/11 02:33:58;;;;;;;0.50;0.50;;;9.90;99.90;11.40;96707.00;;;;4991048;28;20672;-69
2022/09/11 02:37:12;;;;;;;8.03;0.70;;;10.00;99.90;11.20;96710.00;;;;4991754;28;20206;-69
2022/09/11 02:40:25;;;;;;;0.57;0.57;;;10.00;99.90;11.20;96718.00;;;;4997299;28;20394;-70
2022/09/11 02:43:46;;;;;;;0.50;0.50;;;11.20;99.90;11.10;96721.00;;;;5004516;28;20248;-70
2022/09/11 02:47:00;;;;;;;4.27;1.17;;;10.10;99.90;10.90;96716.00;;;;5006391;28;20197;-71
2022/09/11 02:49:59;;;;;;;0.47;0.33;;;10.10;99.90;11.00;96718.00;;;;4995158;28;20226;-70
2022/09/11 02:52:58;;;;;;;0.97;0.57;;;10.10;99.90;11.30;96715.00;;;;4987691;28;20207;-70
2022/09/11 02:55:59;;;;;;;0.60;0.60;;;10.10;99.90;11.60;96705.00;;;;5001098;28;20209;-70
2022/09/11 02:58:54;;;;;;;2.63;0.67;;;10.20;99.90;11.40;96711.00;;;;5011500;28;20206;-69
2022/09/11 03:01:48;;;;;;;4.70;0.70;;;10.20;99.90;11.00;96711.00;;;;5008264;28;20226;-71
2022/09/11 03:04:37;;;;;;;1.80;0.63;;;10.20;99.90;10.90;96705.00;;;;5009828;28;20205;-69
2022/09/11 03:07:26;;;;;;;1.53;0.60;;;10.10;99.90;11.30;96702.00;;;;5006565;28;20205;-70
2022/09/11 03:10:16;;;;;;;4.10;0.90;;;10.10;99.90;11.60;96693.00;;;;4994030;28;20226;-70
2022/09/11 03:13:05;;;;;;;0.47;0.47;;;10.20;99.90;11.50;96701.00;;;;5003907;28;20260;-70
2022/09/11 03:15:54;;;;;;;1.37;0.83;;;10.30;99.90;11.50;96704.00;;;;5009387;28;20203;-70
2022/09/11 03:18:42;;;;;;;4.00;0.80;;;10.30;99.90;11.30;96701.00;;;;4996776;28;20210;-69
2022/09/11 03:21:31;;;;;;;2.97;0.70;;;10.20;99.90;11.20;96695.00;;;;4985328;28;20222;-69
2022/09/11 03:24:20;;;;;;;3.33;0.50;;;10.20;99.90;11.10;96696.00;;;;4993135;28;20195;-70
2022/09/11 03:27:10;;;;;;;5.10;0.57;;;10.20;99.90;11.20;96712.00;;;;4994349;28;20198;-70
2022/09/11 03:29:59;;;;;;;0.70;0.53;;;10.20;99.90;11.60;96707.00;;;;4995058;28;20211;-70
2022/09/11 03:32:48;;;;;;;0.50;0.40;;;10.30;99.90;11.50;96713.00;;;;4992627;28;20210;-69
2022/09/11 03:35:37;;;;;;;1.73;0.77;;;10.30;99.90;11.60;96718.00;;;;4994791;28;20195;-70
2022/09/11 03:38:26;;;;;;;0.77;0.63;;;10.40;99.90;11.60;96713.00;;;;4994631;28;20705;-70
2022/09/11 03:41:15;;;;;;;1.30;0.73;;;10.40;99.90;11.80;96722.00;;;;4985520;28;20647;-70
2022/09/11 03:44:05;;;;;;;2.63;0.83;;;10.40;99.90;11.80;96718.00;;;;4983472;28;20194;-70
2022/09/11 03:46:53;;;;;;;3.13;0.60;;;10.50;99.90;11.60;96728.00;;;;4992669;28;20203;-70
2022/09/11 03:49:42;;;;;;;3.50;0.60;;;10.50;99.90;11.50;96728.00;;;;4995017;28;20226;-70
2022/09/11 03:52:31;;;;;;;0.97;0.53;;;10.50;99.90;11.40;96727.00;;;;4993163;28;20300;-70
2022/09/11 03:55:21;;;;;;;1.47;0.60;;;10.50;99.90;11.60;96725.00;;;;4994915;28;20206;-70
2022/09/11 03:58:10;;;;;;;1.30;0.60;;;10.50;99.90;11.50;96724.00;;;;4995181;28;20249;-70
2022/09/11 04:01:01;;;;;;;0.77;0.77;;;10.50;99.90;11.70;96720.00;;;;4994153;28;20222;-69
2022/09/11 04:03:49;;;;;;;0.57;0.53;;;10.50;99.90;12.00;96712.00;;;;4997260;28;20670;-70
2022/09/11 04:06:39;;;;;;;2.80;0.60;;;10.60;99.90;11.90;96720.00;;;;4992019;28;20241;-70
2022/09/11 04:09:28;;;;;;;1.47;0.80;;;10.60;99.90;11.80;96729.00;;;;4989273;28;20230;-69
2022/09/11 04:12:17;;;;;;;0.77;0.53;;;10.60;99.90;11.90;96723.00;;;;4990654;28;20269;-69
2022/09/11 04:15:07;;;;;;;1.73;0.40;;;10.60;99.90;11.90;96731.00;;;;4992662;28;20225;-70
2022/09/11 04:17:57;;;;;;;0.97;0.53;;;10.70;99.90;11.70;96725.00;;;;4992362;28;20555;-70
2022/09/11 04:20:48;;;;;;;0.50;0.50;;;10.70;99.90;11.60;96731.00;;;;4991003;28;20582;-69
2022/09/11 04:23:37;;;;;;;1.03;0.50;;;10.60;99.90;11.30;96729.00;;;;4990766;28;20751;-70
2022/09/11 04:26:29;;;;;;;5.43;0.67;;;10.50;99.90;11.10;96720.00;;;;4995201;28;20225;-69
2022/09/11 04:29:18;;;;;;;0.80;0.70;;;10.50;99.90;11.20;96727.00;;;;5000389;28;20195;-70
2022/09/11 04:32:06;;;;;;;2.63;0.70;;;10.40;99.90;11.50;96727.00;;;;4990094;28;20222;-70
2022/09/11 04:34:56;;;;;;;2.53;0.73;;;10.40;99.90;11.70;96725.00;;;;4991429;28;20705;-70
2022/09/11 04:37:45;;;;;;;0.70;0.70;;;10.50;99.90;11.60;96724.00;;;;4991383;28;20202;-69
2022/09/11 04:40:35;;;;;;;2.53;0.93;;;10.50;99.90;11.30;96733.00;;;;4992416;28;20600;-69
2022/09/11 04:43:23;;;;;;;0.63;0.47;;;10.50;99.90;11.20;96732.00;;;;4991756;28;20207;-70
2022/09/11 04:46:15;;;;;;;0.77;0.60;;;10.40;99.90;11.60;96721.00;;;;4989932;28;20203;-69
2022/09/11 04:49:04;;;;;;;0.73;0.60;;;10.50;99.90;12.00;96721.00;;;;4990606;28;20210;-70
2022/09/11 04:51:54;;;;;;;1.07;0.53;;;10.50;99.90;11.80;96727.00;;;;4988756;28;20241;-69
2022/09/11 04:54:44;;;;;;;0.50;0.50;;;10.60;99.90;11.90;96730.00;;;;4989207;28;20810;-70
2022/09/11 04:57:33;;;;;;;1.07;0.70;;;10.60;99.90;12.00;96731.00;;;;4989485;28;20296;-70
2022/09/11 05:00:22;;;;;;;2.23;0.70;;;10.70;99.90;11.90;96719.00;;;;4987887;28;20666;-70
2022/09/11 05:03:10;;;;;;;5.30;0.93;;;10.70;99.90;12.20;96732.00;;;;4983204;28;20217;-70
2022/09/11 05:06:04;;;;;;;0.60;0.60;;;10.70;99.90;12.30;96725.00;;;;4978355;28;20554;-69
2022/09/11 05:08:55;;;;;;;2.60;0.70;;;10.80;99.90;12.10;96735.00;;;;4979221;28;20549;-70
2022/09/11 05:11:43;;;;;;;2.00;0.40;;;10.90;99.90;12.20;96732.00;;;;4983890;28;20230;-69
2022/09/11 05:14:33;;;;;;;0.60;0.60;;;10.90;99.90;12.30;96732.00;;;;4981854;28;20203;-69
2022/09/11 05:17:22;;;;;;;1.17;0.70;;;10.90;99.90;12.30;96724.00;;;;4992600;28;20210;-69
2022/09/11 05:20:10;;;;;;;2.20;0.60;;;11.00;99.90;12.20;96721.00;;;;4990318;28;20199;-69
2022/09/11 05:22:59;;;;;;;1.13;0.77;;;11.00;99.90;12.10;96729.00;;;;4986560;28;20233;-69
2022/09/11 05:25:50;;;;;;;1.90;0.70;;;11.00;99.90;12.20;96733.00;;;;4991359;28;20206;-70
2022/09/11 05:28:38;;;;;;;1.73;0.90;;;10.90;99.90;12.20;96724.00;;;;4988794;28;20202;-69
2022/09/11 05:31:28;;;;;;;4.20;1.10;;;10.90;99.90;12.20;96724.00;;;;4977544;28;20230;-70
2022/09/11 05:34:17;;;;;;;2.67;1.00;;;11.00;99.90;12.40;96732.00;;;;4989174;28;20260;-70
2022/09/11 05:37:06;;;;;;;1.07;0.97;;;11.00;99.90;12.40;96725.00;;;;4992814;28;20229;-70
2022/09/11 05:39:55;;;;;;;3.20;0.53;;;11.10;99.90;12.10;96725.00;;;;4997804;28;20198;-69
2022/09/11 05:42:45;;;;;;;3.83;0.80;;;11.00;99.90;12.30;96722.00;;;;4992065;28;20835;-70
2022/09/11 05:45:33;;;;;;;2.43;0.80;;;11.10;99.90;12.20;96731.00;;;;4987660;28;20218;-70
2022/09/11 05:48:22;;;;;;;0.60;0.60;;;11.10;99.90;12.50;96727.00;;;;4982945;28;20213;-70
2022/09/11 05:51:14;;;;;;;2.00;1.80;;;11.20;99.90;12.70;96729.00;;;;4991901;28;20242;-69
2022/09/11 05:54:04;;;;;;;1.20;0.60;;;11.30;99.90;12.60;96721.00;;;;4993012;28;20209;-69
2022/09/11 05:56:53;;;;;;;2.10;0.70;;;11.30;99.90;12.80;96730.00;;;;4994548;28;20207;-69
2022/09/11 05:59:43;;;;;;;1.70;0.57;;;11.40;99.90;12.90;96728.00;;;;4985006;28;20204;-70
2022/09/11 06:02:32;;;;;;;2.20;0.70;;;11.50;99.90;13.00;96727.00;;;;4985616;28;20374;-70
2022/09/11 06:05:21;;;;;;;1.77;0.80;;;11.70;99.90;12.80;96742.00;;;;4989640;28;20195;-70
2022/09/11 06:08:11;;;;;;;2.63;0.63;;;11.70;99.90;12.90;96728.00;;;;4988378;28;20210;-70
2022/09/11 06:11:00;;;;;;;1.63;0.83;;;11.70;99.90;13.10;96732.00;;;;4987901;28;20226;-69
2022/09/11 06:13:50;;;;;;;0.77;0.60;;;11.70;99.90;13.50;96732.00;;;;4990829;28;20202;-69
2022/09/11 06:16:40;;;;;;;1.30;0.80;;;11.90;99.90;13.50;96728.00;;;;4986089;28;20214;-69
2022/09/11 06:19:28;;;;;;;1.23;0.80;;;12.00;99.90;13.40;96724.00;;;;4983054;28;20694;-70
2022/09/11 06:22:20;;;;;;;1.67;0.63;;;12.00;99.90;13.60;96736.00;;;;4985987;28;20222;-70
2022/09/11 06:25:09;;;;;;;1.70;0.63;;;12.10;99.90;13.80;96735.00;;;;4986985;28;20257;-69
2022/09/11 06:27:58;;;;;;;5.73;0.73;;;12.30;99.90;13.90;96733.00;;;;4988340;28;20634;-70
2022/09/11 06:30:49;;;;;;;1.77;0.80;;;12.40;99.90;14.00;96735.00;;;;4988649;28;20297;-69
2022/09/11 06:33:41;;;;;;;3.80;0.87;;;12.50;99.90;13.90;96740.00;;;;4979529;28;20564;-70
2022/09/11 06:36:30;;;;;;;1.07;0.70;;;12.50;99.90;13.60;96727.00;;;;4988596;28;20575;-70
2022/09/11 06:39:21;;;;;;;1.80;1.30;;;12.50;99.90;13.50;96730.00;;;;4988706;28;20203;-70
2022/09/11 06:42:10;;;;;;;2.83;0.80;;;12.50;99.90;13.50;96710.00;;;;4987912;28;20218;-69
2022/09/11 06:44:59;;;;;;;3.30;1.10;;;12.60;99.90;14.00;96726.00;;;;4989700;28;20203;-70
2022/09/11 06:47:47;;;;;;;1.03;0.60;;;12.70;99.90;14.20;96716.00;;;;4992256;28;20273;-69
2022/09/11 06:50:39;;;;;;;0.60;0.57;;;12.80;99.90;14.30;96719.00;;;;4996276;28;20230;-69
2022/09/11 06:53:28;;;;;;;0.63;0.63;;;12.90;99.90;14.60;96720.00;;;;4988048;28;20205;-70
2022/09/11 06:56:19;;;;;;;12.67;1.33;;;13.00;99.90;14.60;96715.00;;;;4989620;28;20206;-70
2022/09/11 06:59:08;;;;;;;1.63;0.70;;;13.10;99.90;15.10;96717.00;;;;4989265;28;20201;-69
2022/09/11 07:01:59;;;;;;;2.97;1.07;;;13.30;99.90;15.30;96718.00;;;;4987957;28;20702;-70
2022/09/11 07:04:48;;;;;;;2.17;0.70;;;13.60;99.90;15.20;96716.00;;;;4987991;28;20199;-70
2022/09/11 07:07:38;;;;;;;2.30;0.70;;;13.70;99.90;15.50;96709.00;;;;4988550;28;20619;-70
2022/09/11 07:10:27;;;;;;;3.00;0.63;;;13.90;99.90;16.10;96707.00;;;;4997376;28;20225;-70
2022/09/11 07:13:16;;;;;;;2.47;0.70;;;14.20;99.90;16.10;96717.00;;;;4987921;28;20195;-70
2022/09/11 07:16:07;;;;;;;2.07;0.70;;;14.40;99.90;16.00;96717.00;;;;4988661;28;20290;-69
2022/09/11 07:18:56;;;;;;;1.63;0.90;;;14.50;99.90;16.10;96711.00;;;;4985410;28;20202;-70
2022/09/11 07:21:45;;;;;;;0.80;0.80;;;14.50;99.90;16.50;96725.00;;;;4977458;28;20783;-70
2022/09/11 07:24:35;;;;;;;3.30;1.00;;;14.70;99.90;16.40;96727.00;;;;4986010;28;20214;-69
2022/09/11 07:27:24;;;;;;;0.90;0.90;;;14.80;99.90;16.90;96725.00;;;;4988215;28;20207;-70
2022/09/11 07:30:13;;;;;;;1.67;0.70;;;14.90;99.90;17.20;96725.00;;;;4996637;28;20256;-70
2022/09/11 07:33:02;;;;;;;1.23;1.13;;;15.20;99.90;17.10;96723.00;;;;4990112;28;20214;-70
2022/09/11 07:35:51;;;;;;;1.30;1.10;;;15.30;99.90;17.20;96730.00;;;;4991841;28;20625;-70
2022/09/11 07:38:41;;;;;;;0.60;0.60;;;15.50;99.90;17.30;96728.00;;;;4990658;28;20207;-70
2022/09/11 07:41:32;;;;;;;3.10;0.80;;;15.60;99.90;17.30;96730.00;;;;4990915;28;20267;-70
2022/09/11 07:44:21;;;;;;;1.57;0.67;;;15.70;99.90;17.90;96720.00;;;;5047062;23;20733;-87
2022/09/11 07:47:10;;;;;;;1.70;0.87;;;15.80;99.90;18.20;96739.00;;;;5054647;28;20200;-87
2022/09/11 07:49:59;;;;;;;2.43;0.73;;;16.10;99.90;18.50;96739.00;;;;5059449;28;20197;-88
2022/09/11 07:52:48;;;;;;;1.17;0.63;;;16.30;99.90;18.80;96725.00;;;;5057010;28;20286;-88
2022/09/11 07:55:36;;;;;;;5.70;1.33;;;16.50;99.90;19.10;96725.00;;;;5047478;28;20224;-88
2022/09/11 07:58:54;;;;;;;0.67;0.67;;;16.80;99.90;19.50;96732.00;;;;5030981;28;20246;-87
2022/09/11 08:06:24;;;;;;;5.93;0.73;;;17.50;99.90;19.90;96732.00;;;;5000784;28;20221;-88
2022/09/11 08:16:25;;;;;;;0.53;0.53;;;18.60;99.90;21.20;96741.00;;;;5021546;28;20219;-71
2022/09/11 08:19:18;;;;;;;2.97;0.60;;;18.90;99.90;21.30;96739.00;;;;5022035;28;20203;-71
2022/09/11 08:22:07;;;;;;;3.03;0.70;;;19.10;99.90;21.40;96750.00;;;;5020887;28;20224;-71
2022/09/11 08:24:56;;;;;;;1.20;0.73;;;19.30;99.90;21.70;96746.00;;;;5012078;28;20279;-71
2022/09/11 08:27:45;;;;;;;0.73;0.60;;;19.50;99.90;21.80;96744.00;;;;5003075;28;20214;-71
2022/09/11 08:30:37;;;;;;;1.40;0.80;;;19.60;99.90;21.60;96751.00;;;;5009533;28;20197;-71
2022/09/11 08:33:27;;;;;;;0.67;0.50;;;19.70;99.90;21.30;96761.00;;;;5008540;28;20287;-71
2022/09/11 08:36:15;;;;;;;0.83;0.60;;;19.60;99.90;21.20;96766.00;;;;5010295;28;20209;-71
2022/09/11 08:39:04;;;;;;;2.00;0.40;;;19.60;99.90;21.40;96762.00;;;;5008671;28;20619;-71
2022/09/11 08:41:59;;;;;;;0.47;0.40;;;19.60;99.90;21.20;96761.00;;;;5013681;28;20205;-71
2022/09/11 08:44:51;;;;;;;2.33;0.53;;;19.50;99.90;21.40;96767.00;;;;4991425;28;20261;-71
2022/09/11 08:47:41;;;;;;;4.53;0.87;;;19.50;99.90;21.30;96766.00;;;;5006409;28;20287;-71
2022/09/11 08:50:38;;;;;;;2.23;0.53;;;19.60;99.90;21.60;96774.00;;;;5001801;28;21041;-71
2022/09/11 08:53:31;;;;;;;1.23;0.50;;;19.60;99.90;21.80;96765.00;;;;5005539;28;20681;-71
2022/09/11 08:56:23;;;;;;;0.97;0.33;;;19.70;99.90;22.20;96761.00;;;;5006689;28;20197;-71
2022/09/11 08:59:23;;;;;;;1.37;0.50;;;19.90;99.90;22.80;96766.00;;;;5009250;28;20285;-71
2022/09/11 09:02:37;;;;;;;1.03;0.50;;;20.20;99.90;23.10;96757.00;;;;5004254;28;20616;-70
2022/09/11 09:05:35;;;;;;;0.33;0.30;;;20.50;99.90;23.30;96757.00;;;;5010921;28;20202;-71
2022/09/11 09:08:42;;;;;;;0.67;0.30;;;20.90;99.90;23.70;96750.00;;;;4995299;28;20599;-71
2022/09/11 09:11:37;;;;;;;0.40;0.30;;;21.20;99.90;23.70;96746.00;;;;5004688;28;20201;-71
2022/09/11 09:14:51;;;;;;;1.10;0.20;;;21.50;99.90;24.10;96740.00;;;;5010304;28;20226;-70
2022/09/11 09:17:44;;;;;;;2.00;0.50;;;21.70;99.90;23.40;96732.00;;;;5009320;28;20214;-71
2022/09/11 09:20:38;;;;;;;4.57;0.80;;;21.80;99.90;23.70;96725.00;;;;5012348;28;20198;-71
2022/09/11 09:23:32;;;;;;;0.20;0.20;;;22.00;99.90;25.00;96745.00;;;;5004581;28;20697;-71
2022/09/11 09:26:21;;;;;;;2.33;0.57;;;22.20;99.90;24.10;96731.00;;;;5007322;28;20202;-72
2022/09/11 09:29:18;;;;;;;0.60;0.30;;;22.30;99.90;23.80;96748.00;;;;5010949;28;20202;-71
2022/09/11 09:32:15;;;;;;;0.40;0.30;;;22.20;99.90;23.00;96751.00;;;;5001858;28;20229;-72
2022/09/11 09:35:16;;;;;;;0.47;0.30;;;22.00;99.90;23.30;96755.00;;;;5008943;28;20201;-72
2022/09/11 09:38:13;;;;;;;0.73;0.40;;;21.70;99.90;22.70;96744.00;;;;4996480;28;20201;-71
2022/09/11 09:41:39;;;;;;;0.30;0.20;;;21.60;99.90;22.30;96757.00;;;;5002765;28;20198;-71
2022/09/11 09:44:50;;;;;;;0.63;0.30;;;21.20;99.90;22.50;96753.00;;;;5003799;28;20214;-71
2022/09/11 09:47:44;;;;;;;2.13;0.30;;;21.00;99.90;22.10;96758.00;;;;5004698;28;20860;-72
2022/09/11 09:50:37;;;;;;;0.30;0.23;;;20.80;99.60;21.90;96771.00;;;;5002924;28;20213;-71
2022/09/11 09:53:35;;;;;;;0.40;0.33;;;20.60;99.40;21.10;96764.00;;;;5007593;28;20222;-70
2022/09/11 09:56:25;;;;;;;0.77;0.30;;;20.40;97.90;21.60;96758.00;;;;5005541;28;20202;-71
2022/09/11 09:59:18;;;;;;;0.30;0.30;;;20.20;99.50;21.30;96758.00;;;;5001216;28;20194;-71
2022/09/11 10:02:07;;;;;;;0.47;0.40;;;20.10;98.70;22.10;96747.00;;;;5001588;28;20202;-71
2022/09/11 10:05:15;;;;;;;1.27;0.50;;;20.10;99.90;22.50;96734.00;;;;5000428;28;20226;-71
2022/09/11 10:08:08;;;;;;;0.37;0.30;;;20.30;99.90;23.30;96730.00;;;;5004483;28;20199;-71
2022/09/11 10:11:00;;;;;;;0.40;0.40;;;20.60;99.90;24.40;96723.00;;;;5004492;28;20264;-71
2022/09/11 10:13:54;;;;;;;0.60;0.50;;;21.20;99.90;25.40;96721.00;;;;5005172;28;20237;-71
2022/09/11 10:16:49;;;;;;;1.47;0.50;;;21.90;99.90;25.50;96748.00;;;;5003238;28;20638;-71
2022/09/11 10:19:41;;;;;;;1.80;0.70;;;22.50;99.90;24.70;96724.00;;;;5011970;28;20199;-72
2022/09/11 10:22:32;;;;;;;1.47;0.57;;;22.80;99.90;25.00;96748.00;;;;5002054;28;20221;-71
2022/09/11 10:25:25;;;;;;;0.40;0.40;;;22.90;99.40;24.10;96751.00;;;;5007555;28;20202;-71
2022/09/11 10:28:19;;;;;;;0.80;0.60;;;22.80;99.30;24.10;96756.00;;;;5006450;28;20191;-71
2022/09/11 10:31:07;;;;;;;0.47;0.47;;;22.60;99.70;23.90;96753.00;;;;5006341;28;20198;-70
2022/09/11 10:33:59;;;;;;;0.47;0.30;;;22.40;99.40;23.30;96757.00;;;;5007377;28;20226;-71
2022/09/11 10:36:54;;;;;;;0.40;0.30;;;22.20;98.70;22.90;96741.00;;;;5003948;28;20237;-72
2022/09/11 10:39:46;;;;;;;0.30;0.30;;;21.90;99.50;23.60;96728.00;;;;5003250;28;20213;-73
2022/09/11 10:42:37;;;;;;;0.63;0.50;;;21.80;99.90;23.30;96739.00;;;;5003285;28;20286;-71
2022/09/11 10:45:27;;;;;;;2.00;0.47;;;21.90;99.90;22.70;96734.00;;;;5007914;28;20260;-73
2022/09/11 10:48:22;;;;;;;1.60;0.50;;;21.80;99.80;22.30;96744.00;;;;5006498;28;20277;-71
2022/09/11 10:51:12;;;;;;;0.60;0.27;;;21.40;99.90;22.50;96731.00;;;;5006147;28;20828;-72
2022/09/11 10:54:14;;;;;;;0.27;0.20;;;21.30;99.50;22.50;96728.00;;;;5006752;28;20276;-72
2022/09/11 10:57:15;;;;;;;0.20;0.20;;;21.20;99.90;22.30;96733.00;;;;4998568;28;20213;-73
2022/09/11 11:00:13;;;;;;;3.50;0.47;;;21.00;99.60;22.40;96730.00;;;;4997562;28;20190;-71
2022/09/11 11:03:08;;;;;;;0.40;0.30;;;20.90;99.90;22.40;96744.00;;;;5002061;28;20229;-71
2022/09/11 11:06:14;;;;;;;0.20;0.20;;;20.90;99.90;22.20;96747.00;;;;5005194;28;20210;-71
2022/09/11 11:09:29;;;;;;;0.83;0.30;;;20.50;99.70;21.90;96739.00;;;;5011216;28;20252;-73
2022/09/11 11:12:33;;;;;;;0.33;0.33;;;20.70;99.20;22.10;96740.00;;;;4999998;28;20202;-72
2022/09/11 11:15:37;;;;;;;0.20;0.20;;;20.60;98.20;22.40;96746.00;;;;5009295;28;20216;-71
2022/09/11 11:18:47;;;;;;;0.20;0.20;;;20.60;98.00;22.40;96742.00;;;;5010324;28;20681;-71
2022/09/11 11:21:54;;;;;;;1.10;0.80;;;20.70;98.10;22.60;96741.00;;;;5009114;28;20210;-71
2022/09/11 11:25:02;;;;;;;1.10;0.87;;;20.80;97.60;23.30;96736.00;;;;5006837;28;20300;-71
2022/09/11 11:28:17;;;;;;;0.70;0.57;;;20.90;99.20;23.40;96728.00;;;;4995974;28;20207;-71
2022/09/11 11:31:25;;;;;;;0.40;0.37;;;21.20;99.90;23.50;96734.00;;;;5007958;28;20257;-70
2022/09/11 11:34:50;;;;;;;0.47;0.20;;;21.40;99.60;23.80;96731.00;;;;5007605;28;20229;-71
2022/09/11 11:37:42;;;;;;;0.33;0.30;;;21.50;99.90;23.80;96729.00;;;;5010342;28;20217;-71
2022/09/11 11:40:36;;;;;;;1.50;0.27;;;21.70;99.60;23.90;96740.00;;;;5009413;28;20210;-70
2022/09/11 11:43:29;;;;;;;0.60;0.30;;;21.80;99.00;23.80;96743.00;;;;5001187;28;20880;-70
2022/09/11 11:46:25;;;;;;;0.33;0.30;;;21.80;98.60;23.80;96734.00;;;;5005158;28;20206;-71
2022/09/11 11:49:21;;;;;;;0.33;0.23;;;21.90;97.50;23.90;96740.00;;;;5007822;28;20204;-71
2022/09/11 11:52:26;;;;;;;0.30;0.30;;;21.90;97.90;23.20;96746.00;;;;5008516;28;20311;-70
2022/09/11 11:55:19;;;;;;;0.63;0.30;;;21.80;97.50;23.20;96742.00;;;;5007751;28;20208;-70
2022/09/11 11:58:21;;;;;;;0.60;0.40;;;21.70;97.50;23.30;96748.00;;;;5007716;28;20701;-70
2022/09/11 12:01:18;;;;;;;0.50;0.40;;;21.60;97.70;23.10;96754.00;;;;5001638;28;20982;-70
2022/09/11 12:04:23;;;;;;;0.20;0.20;;;21.50;97.50;23.00;96759.00;;;;5005705;28;20221;-70
2022/09/11 12:07:20;;;;;;;0.20;0.10;;;21.40;98.60;22.80;96760.00;;;;5010039;28;20208;-70
2022/09/11 12:10:22;;;;;;;0.40;0.20;;;21.30;98.80;22.70;96744.00;;;;5010507;28;20213;-70
2022/09/11 12:13:15;;;;;;;0.70;0.30;;;21.20;98.20;22.90;96753.00;;;;5005182;28;20257;-70
2022/09/11 12:16:17;;;;;;;0.53;0.20;;;21.10;98.20;22.60;96756.00;;;;5007418;28;20205;-70
2022/09/11 12:19:15;;;;;;;0.20;0.10;;;21.10;98.40;22.80;96761.00;;;;5006244;28;20202;-71
2022/09/11 12:22:11;;;;;;;0.53;0.20;;;21.00;98.60;22.90;96769.00;;;;5008129;28;20612;-71
2022/09/11 12:25:02;;;;;;;0.20;0.10;;;21.10;99.10;22.70;96774.00;;;;5009798;28;20609;-70
2022/09/11 12:28:10;;;;;;;1.47;0.20;;;21.00;98.90;22.80;96767.00;;;;5004523;28;20206;-70
2022/09/11 12:31:05;;;;;;;0.30;0.20;;;21.00;98.80;22.70;96765.00;;;;5006996;28;20209;-70
2022/09/11 12:33:57;;;;;;;0.20;0.20;;;21.00;99.90;22.20;96771.00;;;;4995999;28;20229;-71
2022/09/11 12:36:54;;;;;;;0.20;0.13;;;20.80;98.00;22.10;96767.00;;;;5009087;28;20206;-71
2022/09/11 12:39:51;;;;;;;0.30;0.30;;;20.70;97.70;21.90;96765.00;;;;5009551;28;20237;-70
2022/09/11 12:42:57;;;;;;;0.30;0.20;;;20.60;98.10;21.70;96770.00;;;;5003460;28;20205;-71
2022/09/11 12:45:47;;;;;;;0.20;0.20;;;20.40;97.90;21.80;96764.00;;;;5005218;28;20212;-70
2022/09/11 12:48:40;;;;;;;0.93;0.10;;;20.30;98.10;22.00;96757.00;;;;5010663;28;20198;-71
2022/09/11 12:51:35;;;;;;;0.30;0.30;;;20.30;98.50;22.10;96758.00;;;;5007752;28;20202;-71
2022/09/11 12:54:27;;;;;;;0.63;0.20;;;20.30;98.50;22.30;96762.00;;;;5009620;28;20217;-71
2022/09/11 12:57:21;;;;;;;0.20;0.20;;;20.40;98.90;22.00;96750.00;;;;5001631;28;20641;-70
2022/09/11 13:00:24;;;;;;;0.70;0.30;;;20.50;98.30;22.50;96754.00;;;;5009076;28;20751;-71
2022/09/11 13:03:21;;;;;;;0.20;0.10;;;20.50;98.70;22.80;96761.00;;;;5007937;28;20225;-70
2022/09/11 13:06:12;;;;;;;0.27;0.27;;;20.70;99.20;22.50;96756.00;;;;5008924;28;20239;-71